createdAt,value
2022-08-02T00:01:06.302Z,68.50
2022-08-02T00:03:35.148Z,68.40
2022-08-02T00:06:05.327Z,68.30
2022-08-02T00:08:33.997Z,68.20
2022-08-02T00:11:02.920Z,68.20
2022-08-02T00:13:31.658Z,68.00
2022-08-02T00:16:00.215Z,68.10
2022-08-02T00:18:29.073Z,68.20
2022-08-02T00:20:57.706Z,68.30
2022-08-02T00:23:26.428Z,68.00
2022-08-02T00:25:56.040Z,67.80
2022-08-02T00:28:27.192Z,67.20
2022-08-02T00:31:00.354Z,67.10
2022-08-02T00:34:27.488Z,67.60
2022-08-02T00:36:18.020Z,67.90
2022-08-02T00:38:48.410Z,68.00
2022-08-02T00:41:22.302Z,68.10
2022-08-02T00:43:52.770Z,68.10
2022-08-02T00:46:21.782Z,68.40
2022-08-02T00:48:50.504Z,68.40
2022-08-02T00:51:19.356Z,68.50
2022-08-02T00:53:48.013Z,68.70
2022-08-02T00:56:16.634Z,69.30
2022-08-02T00:58:45.584Z,69.80
2022-08-02T01:01:15.731Z,70.00
2022-08-02T01:03:45.234Z,70.20
2022-08-02T01:06:14.272Z,70.10
2022-08-02T01:08:43.845Z,70.90
2022-08-02T01:11:13.244Z,70.60
2022-08-02T01:13:42.105Z,70.80
2022-08-02T01:16:19.365Z,71.40
2022-08-02T01:18:53.085Z,72.10
2022-08-02T01:21:50.474Z,72.20
2022-08-02T01:24:50.532Z,72.30
2022-08-02T01:27:46.135Z,72.30
2022-08-02T01:30:15.144Z,72.40
2022-08-02T01:32:47.454Z,72.50
2022-08-02T01:35:23.055Z,72.60
2022-08-02T01:38:08.735Z,72.60
2022-08-02T01:40:38.603Z,72.60
2022-08-02T01:43:07.251Z,72.60
2022-08-02T01:45:42.558Z,72.60
2022-08-02T01:48:11.317Z,72.60
2022-08-02T01:50:39.987Z,72.60
2022-08-02T01:53:10.377Z,72.70
2022-08-02T01:55:56.906Z,72.70
2022-08-02T01:58:30.389Z,72.70
2022-08-02T02:00:59.290Z,72.80
2022-08-02T02:03:28.248Z,72.80
2022-08-02T02:05:59.900Z,72.70
2022-08-02T02:08:36.946Z,73.20
2022-08-02T02:12:10.073Z,72.80
2022-08-02T02:13:55.493Z,72.90
2022-08-02T02:16:24.089Z,73.00
2022-08-02T02:18:52.801Z,73.00
2022-08-02T02:21:21.651Z,73.10
2022-08-02T02:23:50.801Z,73.20
2022-08-02T02:26:20.876Z,73.70
2022-08-02T02:29:03.464Z,74.10
2022-08-02T02:31:38.726Z,74.70
2022-08-02T02:34:25.777Z,75.60
2022-08-02T02:36:54.558Z,76.50
2022-08-02T02:39:24.367Z,77.20
2022-08-02T02:41:53.534Z,77.80
2022-08-02T02:44:22.220Z,78.60
2022-08-02T02:46:54.500Z,79.20
2022-08-02T02:49:24.028Z,79.60
2022-08-02T02:51:53.046Z,79.60
2022-08-02T02:54:30.692Z,79.80
2022-08-02T02:57:04.804Z,80.00
2022-08-02T02:59:42.891Z,80.20
2022-08-02T03:02:19.286Z,80.40
2022-08-02T03:04:57.282Z,80.70
2022-08-02T03:07:27.469Z,80.90
2022-08-02T03:09:56.074Z,81.10
2022-08-02T03:12:30.917Z,81.30
2022-08-02T03:15:07.975Z,81.40
2022-08-02T03:17:45.035Z,81.50
2022-08-02T03:20:18.219Z,81.30
2022-08-02T03:22:47.666Z,81.20
2022-08-02T03:25:17.174Z,81.70
2022-08-02T03:27:46.366Z,80.60
2022-08-02T03:30:15.444Z,80.50
2022-08-02T03:32:47.752Z,80.50
2022-08-02T03:35:22.864Z,80.50
2022-08-02T03:37:54.696Z,80.30
2022-08-02T03:40:23.434Z,79.90
2022-08-02T03:42:52.117Z,79.80
2022-08-02T03:45:21.178Z,79.50
2022-08-02T03:47:50.266Z,79.20
2022-08-02T03:50:18.974Z,79.10
2022-08-02T03:52:47.856Z,78.60
2022-08-02T03:55:16.457Z,78.40
2022-08-02T03:57:45.465Z,78.00
2022-08-02T04:00:20.692Z,77.90
2022-08-02T04:02:49.674Z,77.60
2022-08-02T04:05:18.662Z,77.60
2022-08-02T04:08:32.703Z,77.70
2022-08-02T04:10:56.587Z,77.70
2022-08-02T04:13:35.714Z,77.70
2022-08-02T04:16:20.664Z,77.60
2022-08-02T04:19:04.485Z,77.40
2022-08-02T04:21:48.405Z,77.40
2022-08-02T04:24:27.493Z,77.20
2022-08-02T04:27:06.384Z,77.00
2022-08-02T04:29:35.737Z,76.80
2022-08-02T04:32:05.875Z,76.70
2022-08-02T04:34:34.771Z,76.90
2022-08-02T04:37:03.617Z,77.20
2022-08-02T04:39:32.513Z,77.50
2022-08-02T04:42:01.157Z,77.70
2022-08-02T04:44:29.864Z,77.80
2022-08-02T04:47:02.655Z,77.70
2022-08-02T04:49:35.196Z,77.50
2022-08-02T04:52:04.424Z,77.30
2022-08-02T04:54:33.073Z,77.20
2022-08-02T04:57:01.693Z,77.20
2022-08-02T04:59:30.604Z,77.20
2022-08-02T05:01:59.202Z,77.00
2022-08-02T05:04:27.811Z,76.90
2022-08-02T05:06:56.701Z,76.80
2022-08-02T05:09:25.361Z,76.70
2022-08-02T05:11:54.973Z,76.80
2022-08-02T05:14:24.211Z,77.10
2022-08-02T05:16:52.981Z,77.50
2022-08-02T05:19:21.850Z,78.00
2022-08-02T05:21:50.692Z,78.20
2022-08-02T05:24:19.452Z,78.70
2022-08-02T05:26:48.153Z,79.00
2022-08-02T05:31:47.379Z,79.50
2022-08-02T05:34:16.157Z,80.80
2022-08-02T05:36:45.282Z,81.20
2022-08-02T05:39:18.722Z,81.50
2022-08-02T05:41:48.378Z,81.90
2022-08-02T05:44:17.144Z,82.20
2022-08-02T05:46:45.770Z,82.00
2022-08-02T05:49:16.839Z,82.20
2022-08-02T05:52:05.170Z,82.40
2022-08-02T05:54:43.258Z,83.00
2022-08-02T05:57:32.042Z,85.00
2022-08-02T06:00:15.263Z,87.70
2022-08-02T06:02:43.966Z,89.60
2022-08-02T06:05:15.613Z,90.30
2022-08-02T06:07:45.786Z,91.70
2022-08-02T06:10:16.347Z,93.50
2022-08-02T06:13:14.717Z,94.10
2022-08-02T06:15:53.300Z,94.20
2022-08-02T06:18:27.837Z,94.80
2022-08-02T06:22:31.324Z,95.60
2022-08-02T06:23:58.507Z,96.70
2022-08-02T06:26:29.448Z,97.20
2022-08-02T06:28:59.480Z,98.00
2022-08-02T06:31:28.221Z,98.70
2022-08-02T06:33:57.379Z,98.80
2022-08-02T06:36:53.099Z,99.20
2022-08-02T06:39:32.068Z,99.30
2022-08-02T06:42:04.029Z,99.90
2022-08-02T06:44:50.000Z,99.90
2022-08-02T06:47:21.898Z,99.90
2022-08-02T06:49:54.174Z,99.90
2022-08-02T06:52:30.329Z,99.90
2022-08-02T06:55:01.590Z,99.90
2022-08-02T06:57:30.853Z,99.90
2022-08-02T07:00:02.061Z,99.90
2022-08-02T07:02:31.844Z,99.90
2022-08-02T07:05:00.602Z,99.90
2022-08-02T07:07:29.257Z,99.90
2022-08-02T07:10:01.603Z,99.90
2022-08-02T07:12:32.318Z,99.90
2022-08-02T07:15:03.097Z,99.90
2022-08-02T07:17:32.002Z,99.90
2022-08-02T07:20:00.980Z,99.90
2022-08-02T07:22:30.016Z,99.90
2022-08-02T07:25:00.173Z,99.90
2022-08-02T07:27:29.477Z,99.90
2022-08-02T07:29:58.475Z,99.90
2022-08-02T07:32:32.211Z,99.90
2022-08-02T07:35:06.905Z,99.90
2022-08-02T07:37:55.388Z,99.90
2022-08-02T07:40:26.787Z,99.90
2022-08-02T07:43:03.081Z,99.90
2022-08-02T07:45:36.055Z,99.90
2022-08-02T07:48:06.318Z,99.90
2022-08-02T07:50:35.319Z,99.90
2022-08-02T07:53:04.029Z,99.90
2022-08-02T07:55:40.096Z,99.90
2022-08-02T07:58:13.316Z,99.90
2022-08-02T08:00:43.780Z,99.90
2022-08-02T08:03:12.959Z,99.90
2022-08-02T08:05:41.637Z,99.90
2022-08-02T08:08:15.230Z,99.90
2022-08-02T08:10:47.165Z,99.90
2022-08-02T08:13:16.236Z,99.90
2022-08-02T08:15:51.806Z,99.90
2022-08-02T08:18:22.583Z,99.90
2022-08-02T08:20:52.102Z,99.90
2022-08-02T08:23:20.871Z,99.90
2022-08-02T08:25:49.826Z,99.90
2022-08-02T08:28:18.499Z,99.90
2022-08-02T08:30:47.857Z,99.90
2022-08-02T08:33:16.745Z,99.90
2022-08-02T08:35:45.488Z,99.90
2022-08-02T08:38:15.854Z,99.90
2022-08-02T08:40:45.117Z,99.90
2022-08-02T08:43:14.441Z,99.90
2022-08-02T08:45:56.210Z,99.90
2022-08-02T08:48:31.015Z,99.90
2022-08-02T08:51:13.090Z,99.90
2022-08-02T08:53:44.195Z,99.90
2022-08-02T08:56:16.282Z,99.90
2022-08-02T08:58:47.895Z,99.90
2022-08-02T09:01:17.387Z,99.90
2022-08-02T09:03:46.250Z,99.90
2022-08-02T09:06:15.293Z,99.90
2022-08-02T09:08:44.100Z,99.90
2022-08-02T09:11:18.397Z,99.90
2022-08-02T09:14:05.513Z,99.90
2022-08-02T09:16:44.318Z,99.90
2022-08-02T09:19:27.288Z,99.90
2022-08-02T09:22:11.373Z,99.90
2022-08-02T09:24:49.368Z,99.90
2022-08-02T09:27:23.322Z,99.90
2022-08-02T09:30:12.125Z,99.90
2022-08-02T09:32:47.217Z,99.90
2022-08-02T09:36:05.465Z,99.90
2022-08-02T09:38:25.976Z,99.90
2022-08-02T09:40:55.558Z,99.90
2022-08-02T09:43:51.924Z,99.90
2022-08-02T09:46:41.207Z,99.90
2022-08-02T09:49:13.513Z,99.90
2022-08-02T09:51:53.648Z,99.90
2022-08-02T09:54:29.182Z,99.90
2022-08-02T09:57:02.129Z,99.90
2022-08-02T09:59:31.139Z,99.90
2022-08-02T10:02:02.314Z,99.90
2022-08-02T10:04:34.142Z,99.90
2022-08-02T10:07:04.700Z,99.90
2022-08-02T10:09:34.020Z,99.90
2022-08-02T10:12:08.595Z,99.90
2022-08-02T10:14:37.747Z,99.90
2022-08-02T10:17:07.528Z,99.90
2022-08-02T10:20:00.418Z,99.90
2022-08-02T10:22:25.160Z,99.90
2022-08-02T10:24:53.770Z,99.90
2022-08-02T10:27:22.443Z,99.90
2022-08-02T10:29:54.691Z,99.90
2022-08-02T10:32:33.817Z,99.90
2022-08-02T10:35:20.094Z,99.90
2022-08-02T10:38:03.985Z,99.90
2022-08-02T10:40:50.198Z,99.90
2022-08-02T10:43:44.270Z,99.90
2022-08-02T10:46:38.822Z,99.90
2022-08-02T10:49:40.042Z,99.90
2022-08-02T10:52:10.352Z,99.90
2022-08-02T10:54:57.947Z,99.90
2022-08-02T10:57:29.836Z,99.90
2022-08-02T11:00:10.720Z,99.90
2022-08-02T11:02:47.414Z,99.90
2022-08-02T11:05:42.648Z,99.90
2022-08-02T11:08:22.830Z,99.90
2022-08-02T11:10:51.625Z,99.90
2022-08-02T11:13:20.654Z,99.90
2022-08-02T11:16:10.726Z,99.90
2022-08-02T11:18:52.560Z,99.90
2022-08-02T11:21:26.201Z,99.90
2022-08-02T11:23:55.718Z,99.90
2022-08-02T11:26:33.107Z,99.90
2022-08-02T11:29:05.674Z,99.90
2022-08-02T11:31:43.367Z,99.90
2022-08-02T11:34:36.658Z,99.90
2022-08-02T11:37:01.369Z,99.90
2022-08-02T11:39:30.595Z,99.90
2022-08-02T11:42:00.682Z,99.50
2022-08-02T11:44:31.157Z,99.10
2022-08-02T11:47:02.624Z,98.60
2022-08-02T11:49:31.815Z,98.60
2022-08-02T11:52:06.922Z,98.50
2022-08-02T11:54:38.267Z,98.00
2022-08-02T11:57:20.812Z,97.60
2022-08-02T11:59:54.937Z,97.60
2022-08-02T12:02:33.998Z,97.60
2022-08-02T12:05:09.117Z,97.80
2022-08-02T12:07:46.116Z,98.20
2022-08-02T12:10:21.497Z,98.50
2022-08-02T12:12:56.560Z,98.00
2022-08-02T12:15:45.515Z,97.30
2022-08-02T12:18:39.032Z,97.40
2022-08-02T12:21:27.110Z,97.90
2022-08-02T12:23:59.640Z,97.50
2022-08-02T12:26:30.694Z,96.70
2022-08-02T12:28:59.978Z,96.00
2022-08-02T12:31:55.796Z,95.60
2022-08-02T12:34:32.650Z,95.30
2022-08-02T12:37:08.807Z,95.30
2022-08-02T12:39:46.291Z,94.90
2022-08-02T12:42:16.291Z,94.60
2022-08-02T12:45:00.683Z,93.00
2022-08-02T12:47:35.682Z,93.20
2022-08-02T12:50:15.619Z,93.20
2022-08-02T12:52:46.959Z,93.50
2022-08-02T12:56:01.129Z,92.70
2022-08-02T12:58:17.848Z,90.50
2022-08-02T13:01:13.564Z,91.20
2022-08-02T13:04:09.849Z,91.40
2022-08-02T13:06:39.829Z,90.40
2022-08-02T13:09:17.520Z,90.20
2022-08-02T13:11:46.652Z,82.70
2022-08-02T13:14:15.646Z,78.40
2022-08-02T13:16:45.854Z,77.90
2022-08-02T13:19:16.012Z,77.90
2022-08-02T13:22:02.437Z,78.60
2022-08-02T13:24:39.772Z,77.30
2022-08-02T13:27:10.481Z,77.40
2022-08-02T13:29:39.456Z,76.80
2022-08-02T13:32:08.217Z,77.30
2022-08-02T13:34:37.139Z,77.50
2022-08-02T13:37:06.057Z,77.10
2022-08-02T13:39:34.717Z,76.50
2022-08-02T13:42:03.418Z,76.10
2022-08-02T13:44:32.318Z,75.40
2022-08-02T13:47:02.413Z,75.00
2022-08-02T13:49:51.483Z,74.80
2022-08-02T13:52:20.567Z,74.20
2022-08-02T13:54:49.266Z,74.50
2022-08-02T13:57:18.068Z,75.70
2022-08-02T13:59:56.122Z,76.80
2022-08-02T14:02:28.607Z,77.10
2022-08-02T14:04:57.679Z,78.40
2022-08-02T14:07:26.367Z,79.00
2022-08-02T14:09:55.030Z,78.90
2022-08-02T14:12:24.054Z,77.10
2022-08-02T14:14:52.788Z,76.30
2022-08-02T14:17:21.397Z,76.10
2022-08-02T14:19:51.436Z,76.10
2022-08-02T14:22:20.092Z,76.30
2022-08-02T14:24:48.761Z,75.90
2022-08-02T14:27:17.770Z,76.20
2022-08-02T14:29:48.566Z,76.20
2022-08-02T14:32:18.176Z,76.10
2022-08-02T14:34:47.018Z,76.10
2022-08-02T14:37:17.207Z,75.40
2022-08-02T14:39:59.999Z,75.30
2022-08-02T14:42:29.950Z,75.50
2022-08-02T14:44:58.697Z,75.70
2022-08-02T14:47:27.487Z,75.80
2022-08-02T14:49:56.519Z,75.80
2022-08-02T14:52:25.397Z,75.70
2022-08-02T14:54:54.147Z,75.50
2022-08-02T14:57:24.598Z,75.60
2022-08-02T14:59:53.267Z,75.30
2022-08-02T15:02:21.977Z,75.30
2022-08-02T15:04:50.879Z,75.50
2022-08-02T15:07:20.599Z,75.60
2022-08-02T15:09:49.667Z,74.90
2022-08-02T15:12:18.869Z,74.80
2022-08-02T15:14:47.584Z,75.60
2022-08-02T15:17:17.356Z,74.40
2022-08-02T15:19:57.565Z,74.40
2022-08-02T15:22:29.079Z,74.50
2022-08-02T15:24:58.105Z,74.90
2022-08-02T15:27:26.792Z,74.80
2022-08-02T15:30:00.724Z,74.20
2022-08-02T15:32:30.099Z,74.30
2022-08-02T15:34:58.873Z,74.00
2022-08-02T15:37:30.848Z,73.90
2022-08-02T15:40:03.646Z,73.90
2022-08-02T15:42:32.410Z,74.00
2022-08-02T15:45:01.247Z,74.00
2022-08-02T15:47:29.880Z,74.00
2022-08-02T15:49:58.693Z,74.00
2022-08-02T15:52:27.798Z,74.20
2022-08-02T15:54:56.714Z,74.00
2022-08-02T15:57:36.472Z,73.60
2022-08-02T16:00:17.866Z,73.60
2022-08-02T16:02:48.171Z,73.80
2022-08-02T16:05:18.438Z,73.70
2022-08-02T16:07:47.235Z,73.80
2022-08-02T16:10:17.019Z,73.90
2022-08-02T16:12:45.700Z,73.70
2022-08-02T16:15:14.346Z,73.60
2022-08-02T16:17:53.680Z,73.70
2022-08-02T16:20:23.658Z,73.90
2022-08-02T16:22:52.418Z,73.90
2022-08-02T16:25:21.065Z,74.50
2022-08-02T16:28:06.272Z,74.80
2022-08-02T16:30:36.576Z,75.00
2022-08-02T16:33:05.298Z,75.20
2022-08-02T16:35:35.114Z,75.30
2022-08-02T16:38:03.932Z,75.50
2022-08-02T16:40:34.548Z,75.60
2022-08-02T16:43:03.900Z,75.60
2022-08-02T16:45:38.211Z,75.40
2022-08-02T16:48:09.225Z,75.30
2022-08-02T16:50:38.370Z,75.50
2022-08-02T16:53:07.813Z,75.60
2022-08-02T16:55:37.038Z,75.60
2022-08-02T16:58:09.570Z,75.50
2022-08-02T17:00:39.097Z,75.40
2022-08-02T17:03:15.494Z,75.30
2022-08-02T17:05:55.938Z,75.20
2022-08-02T17:08:31.669Z,75.80
2022-08-02T17:11:03.823Z,74.80
2022-08-02T17:13:34.196Z,74.80
2022-08-02T17:16:25.681Z,74.90
2022-08-02T17:18:56.534Z,75.00
2022-08-02T17:21:25.437Z,74.60
2022-08-02T17:24:06.194Z,74.70
2022-08-02T17:26:37.978Z,74.70
2022-08-02T17:29:15.915Z,74.60
2022-08-02T17:32:05.740Z,74.40
2022-08-02T17:34:36.734Z,74.50
2022-08-02T17:37:06.417Z,74.80
2022-08-02T17:39:43.975Z,74.80
2022-08-02T17:42:23.082Z,74.80
2022-08-02T17:45:06.839Z,74.90
2022-08-02T17:48:04.672Z,74.80
2022-08-02T17:50:34.961Z,74.80
2022-08-02T17:53:05.697Z,74.90
2022-08-02T17:55:37.951Z,75.00
2022-08-02T17:58:12.607Z,75.00
2022-08-02T18:00:41.517Z,74.80
2022-08-02T18:03:14.066Z,75.00
2022-08-02T18:05:53.377Z,75.10
2022-08-02T18:08:23.941Z,75.20
2022-08-02T18:10:54.527Z,75.10
2022-08-02T18:13:23.738Z,75.00
2022-08-02T18:15:57.313Z,74.90
2022-08-02T18:18:30.356Z,74.80
2022-08-02T18:21:15.484Z,74.70
2022-08-02T18:23:55.507Z,74.90
2022-08-02T18:26:28.827Z,75.00
2022-08-02T18:28:58.702Z,75.20
2022-08-02T18:31:27.490Z,75.40
2022-08-02T18:34:01.956Z,75.40
2022-08-02T18:36:31.809Z,75.50
2022-08-02T18:39:08.220Z,75.50
2022-08-02T18:41:37.925Z,75.60
2022-08-02T18:44:07.129Z,75.40
2022-08-02T18:46:35.781Z,75.10
2022-08-02T18:49:15.204Z,75.30
2022-08-02T18:51:45.058Z,75.40
2022-08-02T18:54:13.787Z,75.50
2022-08-02T18:56:47.110Z,75.50
2022-08-02T18:59:17.257Z,75.50
2022-08-02T19:01:50.580Z,75.60
2022-08-02T19:04:27.494Z,75.40
2022-08-02T19:07:07.578Z,75.50
2022-08-02T19:09:40.270Z,75.50
2022-08-02T19:12:11.885Z,75.40
2022-08-02T19:14:41.352Z,75.50
2022-08-02T19:17:15.826Z,75.40
2022-08-02T19:19:59.078Z,75.50
2022-08-02T19:22:28.026Z,75.50
2022-08-02T19:25:01.446Z,75.50
2022-08-02T19:27:32.758Z,75.50
2022-08-02T19:30:07.381Z,75.50
2022-08-02T19:32:42.183Z,75.40
2022-08-02T19:35:30.783Z,75.30
2022-08-02T19:38:11.372Z,75.50
2022-08-02T19:40:42.327Z,75.50
2022-08-02T19:44:23.899Z,75.40
2022-08-02T19:46:00.753Z,75.60
2022-08-02T19:48:30.149Z,75.60
2022-08-02T19:51:01.454Z,75.80
2022-08-02T19:53:47.680Z,75.90
2022-08-02T19:56:22.028Z,75.90
2022-08-02T19:58:57.124Z,76.00
2022-08-02T20:01:37.028Z,76.00
2022-08-02T20:04:13.604Z,76.10
2022-08-02T20:06:47.607Z,76.40
2022-08-02T20:09:21.301Z,76.40
2022-08-02T20:11:54.965Z,76.50
2022-08-02T20:14:26.811Z,76.60
2022-08-02T20:16:57.271Z,76.60
2022-08-02T20:19:29.556Z,76.80
2022-08-02T20:22:00.636Z,76.90
2022-08-02T20:24:30.369Z,77.00
2022-08-02T20:26:59.783Z,77.30
2022-08-02T20:29:44.528Z,77.30
2022-08-02T20:32:22.800Z,77.40
2022-08-02T20:34:52.506Z,77.40
2022-08-02T20:38:00.010Z,78.40
2022-08-02T20:40:17.276Z,78.50
2022-08-02T20:42:48.328Z,79.00
2022-08-02T20:45:18.487Z,78.80
2022-08-02T20:47:50.684Z,79.20
2022-08-02T20:50:41.165Z,79.30
2022-08-02T20:53:23.991Z,79.50
2022-08-02T20:55:58.489Z,79.00
2022-08-02T20:58:28.101Z,79.30
2022-08-02T21:01:00.007Z,79.30
2022-08-02T21:03:38.855Z,79.50
2022-08-02T21:06:14.982Z,79.60
2022-08-02T21:08:46.052Z,79.80
2022-08-02T21:11:15.337Z,79.90
2022-08-02T21:13:46.789Z,79.90
2022-08-02T21:16:32.524Z,80.10
2022-08-02T21:19:02.486Z,80.10
2022-08-02T21:21:30.926Z,80.30
2022-08-02T21:24:01.502Z,80.30
2022-08-02T21:26:32.469Z,80.30
2022-08-02T21:29:03.306Z,80.40
2022-08-02T21:31:36.681Z,80.40
2022-08-02T21:34:22.123Z,80.70
2022-08-02T21:36:55.280Z,80.80
2022-08-02T21:39:24.103Z,80.90
2022-08-02T21:41:52.613Z,81.00
2022-08-02T21:44:22.401Z,81.20
2022-08-02T21:46:56.195Z,81.10
2022-08-02T21:49:40.785Z,81.10
2022-08-02T21:52:15.236Z,81.20
2022-08-02T21:54:45.286Z,81.20
2022-08-02T21:57:16.536Z,81.30
2022-08-02T21:59:47.038Z,81.30
2022-08-02T22:02:19.715Z,81.30
2022-08-02T22:04:58.466Z,81.50
2022-08-02T22:07:27.084Z,82.10
2022-08-02T22:09:56.196Z,82.40
2022-08-02T22:12:27.169Z,82.60
2022-08-02T22:14:56.766Z,82.60
2022-08-02T22:17:30.415Z,83.00
2022-08-02T22:23:05.342Z,86.30
2022-08-02T22:25:42.002Z,87.60
2022-08-02T22:28:38.190Z,87.40
2022-08-02T22:31:07.333Z,88.10
2022-08-02T22:34:01.110Z,89.00
2022-08-02T22:36:36.593Z,89.40
2022-08-02T22:39:18.812Z,89.60
2022-08-02T22:42:05.859Z,89.70
2022-08-02T22:44:36.352Z,89.70
2022-08-02T22:47:14.817Z,89.90
2022-08-02T22:49:53.200Z,90.00
2022-08-02T22:52:26.043Z,90.10
2022-08-02T22:54:54.963Z,90.10
2022-08-02T22:57:30.291Z,90.30
2022-08-02T22:59:04.667Z,85.20
2022-08-02T23:00:06.127Z,90.60
2022-08-02T23:02:34.836Z,90.70
2022-08-02T23:05:04.488Z,90.80
2022-08-02T23:07:38.898Z,90.80
2022-08-02T23:10:08.545Z,91.00
2022-08-02T23:12:37.054Z,91.10
2022-08-02T23:15:06.184Z,91.40
2022-08-02T23:17:53.606Z,91.50
2022-08-02T23:20:22.174Z,91.80
2022-08-02T23:22:51.097Z,91.90
2022-08-02T23:25:20.499Z,92.20
2022-08-02T23:27:51.309Z,92.50
2022-08-02T23:30:20.990Z,92.80
2022-08-02T23:32:49.587Z,93.00
2022-08-02T23:35:18.091Z,93.20
2022-08-02T23:37:59.994Z,93.30
2022-08-02T23:40:40.352Z,93.40
2022-08-02T23:43:14.840Z,93.50
2022-08-02T23:45:45.743Z,93.70
2022-08-02T23:48:14.579Z,93.90
2022-08-02T23:50:43.201Z,94.10
2022-08-02T23:53:11.722Z,94.10
2022-08-02T23:55:40.470Z,94.10
2022-08-02T23:58:08.942Z,94.10
